sensor_id;sensor_type;location;lat;lon;timestamp;P1;durP1;ratioP1;P2;durP2;ratioP2
25936;SDS011;13733;51.178;4.450;2023-07-09T16:44:26;14.18;;;6.22;;
25936;SDS011;13733;51.178;4.450;2023-07-09T16:46:52;13.05;;;6.57;;
25936;SDS011;13733;51.178;4.450;2023-07-09T16:49:24;11.25;;;5.85;;
25936;SDS011;13733;51.178;4.450;2023-07-09T16:51:51;11.50;;;4.65;;
25936;SDS011;13733;51.178;4.450;2023-07-09T16:54:17;9.00;;;3.88;;
25936;SDS011;13733;51.178;4.450;2023-07-09T16:56:43;8.15;;;3.58;;
25936;SDS011;13733;51.178;4.450;2023-07-09T16:59:09;6.35;;;3.65;;
25936;SDS011;13733;51.178;4.450;2023-07-09T17:01:35;11.23;;;4.00;;
25936;SDS011;13733;51.178;4.450;2023-07-09T17:06:45;8.27;;;3.65;;
25936;SDS011;13733;51.178;4.450;2023-07-09T17:09:10;8.60;;;4.18;;
25936;SDS011;13733;51.178;4.450;2023-07-09T17:11:36;12.95;;;4.28;;
25936;SDS011;13733;51.178;4.450;2023-07-09T17:14:02;9.15;;;3.78;;
25936;SDS011;13733;51.178;4.450;2023-07-09T17:16:28;9.52;;;4.50;;
25936;SDS011;13733;51.178;4.450;2023-07-09T17:18:53;6.90;;;3.90;;
25936;SDS011;13733;51.178;4.450;2023-07-09T17:21:19;9.30;;;4.53;;
25936;SDS011;13733;51.178;4.450;2023-07-09T17:23:46;10.63;;;4.43;;
25936;SDS011;13733;51.178;4.450;2023-07-09T17:26:12;7.82;;;4.60;;
25936;SDS011;13733;51.178;4.450;2023-07-09T17:28:38;7.90;;;3.53;;
25936;SDS011;13733;51.178;4.450;2023-07-09T17:31:03;9.45;;;3.65;;
25936;SDS011;13733;51.178;4.450;2023-07-09T17:33:31;6.63;;;3.30;;
25936;SDS011;13733;51.178;4.450;2023-07-09T17:35:57;5.60;;;3.35;;
25936;SDS011;13733;51.178;4.450;2023-07-09T17:38:36;8.38;;;3.40;;
25936;SDS011;13733;51.178;4.450;2023-07-09T17:41:03;5.63;;;3.22;;
25936;SDS011;13733;51.178;4.450;2023-07-09T17:43:29;6.40;;;3.40;;
25936;SDS011;13733;51.178;4.450;2023-07-09T17:45:55;6.38;;;3.40;;
25936;SDS011;13733;51.178;4.450;2023-07-09T17:48:24;5.97;;;3.10;;
25936;SDS011;13733;51.178;4.450;2023-07-09T17:50:55;4.85;;;2.78;;
25936;SDS011;13733;51.178;4.450;2023-07-09T17:53:26;4.97;;;2.53;;
25936;SDS011;13733;51.178;4.450;2023-07-09T17:55:54;4.53;;;2.47;;
25936;SDS011;13733;51.178;4.450;2023-07-09T17:58:22;9.52;;;2.80;;
25936;SDS011;13733;51.178;4.450;2023-07-09T18:00:50;5.43;;;2.80;;
25936;SDS011;13733;51.178;4.450;2023-07-09T18:03:18;8.15;;;3.03;;
25936;SDS011;13733;51.178;4.450;2023-07-09T18:05:44;7.82;;;2.65;;
25936;SDS011;13733;51.178;4.450;2023-07-09T18:08:10;7.18;;;3.25;;
25936;SDS011;13733;51.178;4.450;2023-07-09T18:10:37;8.55;;;3.80;;
25936;SDS011;13733;51.178;4.450;2023-07-09T18:13:06;8.85;;;3.83;;
25936;SDS011;13733;51.178;4.450;2023-07-09T18:15:40;7.05;;;3.63;;
25936;SDS011;13733;51.178;4.450;2023-07-09T18:18:09;9.30;;;3.40;;
25936;SDS011;13733;51.178;4.450;2023-07-09T18:20:37;9.68;;;3.60;;
25936;SDS011;13733;51.178;4.450;2023-07-09T18:23:03;7.22;;;3.05;;
25936;SDS011;13733;51.178;4.450;2023-07-09T18:25:28;7.20;;;2.90;;
25936;SDS011;13733;51.178;4.450;2023-07-09T18:27:56;7.95;;;3.10;;
25936;SDS011;13733;51.178;4.450;2023-07-09T18:32:54;9.77;;;3.28;;
25936;SDS011;13733;51.178;4.450;2023-07-09T18:35:24;9.57;;;3.40;;
25936;SDS011;13733;51.178;4.450;2023-07-09T18:37:55;9.23;;;3.60;;
25936;SDS011;13733;51.178;4.450;2023-07-09T18:40:24;6.82;;;3.20;;
25936;SDS011;13733;51.178;4.450;2023-07-09T18:42:52;9.68;;;3.75;;
25936;SDS011;13733;51.178;4.450;2023-07-09T18:45:19;7.80;;;3.70;;
25936;SDS011;13733;51.178;4.450;2023-07-09T18:47:48;6.78;;;3.33;;
25936;SDS011;13733;51.178;4.450;2023-07-09T18:50:21;7.93;;;3.05;;
25936;SDS011;13733;51.178;4.450;2023-07-09T18:52:52;6.55;;;2.90;;
25936;SDS011;13733;51.178;4.450;2023-07-09T18:55:21;8.30;;;3.03;;
25936;SDS011;13733;51.178;4.450;2023-07-09T18:57:49;11.13;;;3.60;;
25936;SDS011;13733;51.178;4.450;2023-07-09T19:00:16;7.65;;;3.22;;
25936;SDS011;13733;51.178;4.450;2023-07-09T19:02:43;7.18;;;3.20;;
25936;SDS011;13733;51.178;4.450;2023-07-09T19:05:17;6.67;;;3.20;;
25936;SDS011;13733;51.178;4.450;2023-07-09T19:07:49;8.98;;;3.20;;
25936;SDS011;13733;51.178;4.450;2023-07-09T19:10:27;9.98;;;3.60;;
25936;SDS011;13733;51.178;4.450;2023-07-09T19:12:58;9.20;;;3.63;;
25936;SDS011;13733;51.178;4.450;2023-07-09T19:15:26;6.97;;;3.58;;
25936;SDS011;13733;51.178;4.450;2023-07-09T19:17:57;12.27;;;4.18;;
25936;SDS011;13733;51.178;4.450;2023-07-09T19:20:23;8.75;;;3.72;;
25936;SDS011;13733;51.178;4.450;2023-07-09T19:22:50;8.27;;;3.75;;
25936;SDS011;13733;51.178;4.450;2023-07-09T19:25:21;12.63;;;3.75;;
25936;SDS011;13733;51.178;4.450;2023-07-09T19:27:49;9.70;;;3.72;;
25936;SDS011;13733;51.178;4.450;2023-07-09T19:30:16;11.05;;;3.42;;
25936;SDS011;13733;51.178;4.450;2023-07-09T19:32:45;13.02;;;4.05;;
25936;SDS011;13733;51.178;4.450;2023-07-09T19:35:16;11.65;;;4.40;;
25936;SDS011;13733;51.178;4.450;2023-07-09T19:37:45;10.57;;;3.90;;
25936;SDS011;13733;51.178;4.450;2023-07-09T19:40:19;14.75;;;3.85;;
25936;SDS011;13733;51.178;4.450;2023-07-09T19:42:48;7.50;;;3.72;;
25936;SDS011;13733;51.178;4.450;2023-07-09T19:45:15;11.63;;;4.07;;
25936;SDS011;13733;51.178;4.450;2023-07-09T19:47:47;7.78;;;3.88;;
25936;SDS011;13733;51.178;4.450;2023-07-09T19:50:20;15.95;;;4.47;;
25936;SDS011;13733;51.178;4.450;2023-07-09T19:52:50;10.07;;;4.10;;
25936;SDS011;13733;51.178;4.450;2023-07-09T19:55:24;11.27;;;4.07;;
25936;SDS011;13733;51.178;4.450;2023-07-09T19:58:00;12.10;;;4.30;;
25936;SDS011;13733;51.178;4.450;2023-07-09T20:00:27;13.68;;;4.18;;
25936;SDS011;13733;51.178;4.450;2023-07-09T20:02:53;9.88;;;4.20;;
25936;SDS011;13733;51.178;4.450;2023-07-09T20:05:21;9.77;;;3.90;;
25936;SDS011;13733;51.178;4.450;2023-07-09T20:07:53;9.32;;;4.03;;
25936;SDS011;13733;51.178;4.450;2023-07-09T20:10:37;9.60;;;4.03;;
25936;SDS011;13733;51.178;4.450;2023-07-09T20:13:03;9.13;;;3.80;;
25936;SDS011;13733;51.178;4.450;2023-07-09T20:15:28;10.90;;;3.83;;
25936;SDS011;13733;51.178;4.450;2023-07-09T20:17:55;8.20;;;3.60;;
25936;SDS011;13733;51.178;4.450;2023-07-09T20:20:23;8.10;;;3.47;;
25936;SDS011;13733;51.178;4.450;2023-07-09T20:22:51;8.48;;;3.38;;
25936;SDS011;13733;51.178;4.450;2023-07-09T20:25:22;10.48;;;3.50;;
25936;SDS011;13733;51.178;4.450;2023-07-09T20:27:50;12.90;;;4.03;;
25936;SDS011;13733;51.178;4.450;2023-07-09T20:30:19;5.80;;;3.10;;
25936;SDS011;13733;51.178;4.450;2023-07-09T20:32:46;11.95;;;3.85;;
25936;SDS011;13733;51.178;4.450;2023-07-09T20:35:21;7.72;;;3.63;;
25936;SDS011;13733;51.178;4.450;2023-07-09T20:37:49;11.07;;;3.58;;
25936;SDS011;13733;51.178;4.450;2023-07-09T20:40:17;7.45;;;3.28;;
25936;SDS011;13733;51.178;4.450;2023-07-09T20:42:45;7.95;;;3.50;;
25936;SDS011;13733;51.178;4.450;2023-07-09T20:45:16;9.32;;;3.53;;
25936;SDS011;13733;51.178;4.450;2023-07-09T20:47:53;9.23;;;3.50;;
25936;SDS011;13733;51.178;4.450;2023-07-09T20:50:23;5.95;;;3.40;;
25936;SDS011;13733;51.178;4.450;2023-07-09T20:52:49;13.13;;;3.53;;
25936;SDS011;13733;51.178;4.450;2023-07-09T20:55:16;5.68;;;3.03;;
25936;SDS011;13733;51.178;4.450;2023-07-09T20:57:44;7.22;;;2.95;;
25936;SDS011;13733;51.178;4.450;2023-07-09T21:02:47;8.27;;;3.30;;
25936;SDS011;13733;51.178;4.450;2023-07-09T21:05:15;5.40;;;2.60;;
25936;SDS011;13733;51.178;4.450;2023-07-09T21:07:44;8.18;;;3.20;;
25936;SDS011;13733;51.178;4.450;2023-07-09T21:10:21;7.97;;;2.85;;
25936;SDS011;13733;51.178;4.450;2023-07-09T21:12:49;7.07;;;2.75;;
25936;SDS011;13733;51.178;4.450;2023-07-09T21:15:28;7.75;;;2.72;;
25936;SDS011;13733;51.178;4.450;2023-07-09T21:17:56;5.60;;;2.90;;
25936;SDS011;13733;51.178;4.450;2023-07-09T21:20:23;7.63;;;3.00;;
25936;SDS011;13733;51.178;4.450;2023-07-09T21:22:53;9.60;;;3.22;;
25936;SDS011;13733;51.178;4.450;2023-07-09T21:25:20;8.60;;;3.30;;
25936;SDS011;13733;51.178;4.450;2023-07-09T21:27:50;10.00;;;3.03;;
25936;SDS011;13733;51.178;4.450;2023-07-09T21:30:20;5.32;;;3.08;;
25936;SDS011;13733;51.178;4.450;2023-07-09T21:32:47;10.95;;;2.95;;
25936;SDS011;13733;51.178;4.450;2023-07-09T21:35:15;7.70;;;2.92;;
25936;SDS011;13733;51.178;4.450;2023-07-09T21:37:47;8.13;;;3.50;;
25936;SDS011;13733;51.178;4.450;2023-07-09T21:40:28;9.63;;;2.90;;
25936;SDS011;13733;51.178;4.450;2023-07-09T21:42:55;10.13;;;2.88;;
25936;SDS011;13733;51.178;4.450;2023-07-09T21:45:31;5.45;;;2.28;;
25936;SDS011;13733;51.178;4.450;2023-07-09T21:48:00;5.50;;;2.80;;
25936;SDS011;13733;51.178;4.450;2023-07-09T21:50:29;6.28;;;2.83;;
25936;SDS011;13733;51.178;4.450;2023-07-09T21:52:56;5.47;;;2.33;;
25936;SDS011;13733;51.178;4.450;2023-07-09T21:55:23;9.13;;;3.30;;
25936;SDS011;13733;51.178;4.450;2023-07-09T21:57:51;7.07;;;3.20;;
25936;SDS011;13733;51.178;4.450;2023-07-09T22:00:18;8.10;;;3.25;;
25936;SDS011;13733;51.178;4.450;2023-07-09T22:02:49;8.05;;;3.08;;
25936;SDS011;13733;51.178;4.450;2023-07-09T22:05:20;7.13;;;2.97;;
25936;SDS011;13733;51.178;4.450;2023-07-09T22:07:49;8.45;;;2.78;;
25936;SDS011;13733;51.178;4.450;2023-07-09T22:10:17;4.30;;;2.10;;
25936;SDS011;13733;51.178;4.450;2023-07-09T22:12:47;7.00;;;2.95;;
25936;SDS011;13733;51.178;4.450;2023-07-09T22:15:21;5.57;;;2.15;;
25936;SDS011;13733;51.178;4.450;2023-07-09T22:17:49;7.85;;;2.45;;
25936;SDS011;13733;51.178;4.450;2023-07-09T22:20:17;4.75;;;2.05;;
25936;SDS011;13733;51.178;4.450;2023-07-09T22:22:45;5.15;;;2.13;;
25936;SDS011;13733;51.178;4.450;2023-07-09T22:25:18;4.78;;;2.53;;
25936;SDS011;13733;51.178;4.450;2023-07-09T22:27:46;6.50;;;2.75;;
25936;SDS011;13733;51.178;4.450;2023-07-09T22:30:13;6.65;;;2.85;;
25936;SDS011;13733;51.178;4.450;2023-07-09T22:32:44;7.80;;;2.35;;
25936;SDS011;13733;51.178;4.450;2023-07-09T22:35:14;3.78;;;2.30;;
25936;SDS011;13733;51.178;4.450;2023-07-09T22:37:42;6.30;;;2.28;;
25936;SDS011;13733;51.178;4.450;2023-07-09T22:40:16;4.25;;;1.77;;
25936;SDS011;13733;51.178;4.450;2023-07-09T22:42:46;4.80;;;2.25;;
25936;SDS011;13733;51.178;4.450;2023-07-09T22:45:14;4.43;;;2.20;;
25936;SDS011;13733;51.178;4.450;2023-07-09T22:47:42;4.47;;;1.90;;
25936;SDS011;13733;51.178;4.450;2023-07-09T22:50:12;3.92;;;2.28;;
25936;SDS011;13733;51.178;4.450;2023-07-09T22:52:42;3.35;;;1.75;;
25936;SDS011;13733;51.178;4.450;2023-07-09T22:55:15;6.78;;;2.35;;
25936;SDS011;13733;51.178;4.450;2023-07-09T22:57:51;4.43;;;2.05;;
25936;SDS011;13733;51.178;4.450;2023-07-09T23:00:18;5.75;;;2.10;;
25936;SDS011;13733;51.178;4.450;2023-07-09T23:02:44;4.43;;;2.05;;
25936;SDS011;13733;51.178;4.450;2023-07-09T23:05:13;4.90;;;2.05;;
25936;SDS011;13733;51.178;4.450;2023-07-09T23:07:39;4.95;;;2.22;;
25936;SDS011;13733;51.178;4.450;2023-07-09T23:10:05;6.22;;;2.75;;
25936;SDS011;13733;51.178;4.450;2023-07-09T23:12:32;6.85;;;2.72;;
25936;SDS011;13733;51.178;4.450;2023-07-09T23:15:01;7.22;;;2.50;;
25936;SDS011;13733;51.178;4.450;2023-07-09T23:17:26;6.05;;;2.63;;
25936;SDS011;13733;51.178;4.450;2023-07-09T23:19:52;8.45;;;2.65;;
25936;SDS011;13733;51.178;4.450;2023-07-09T23:22:18;3.92;;;2.20;;
25936;SDS011;13733;51.178;4.450;2023-07-09T23:24:44;5.68;;;2.50;;
25936;SDS011;13733;51.178;4.450;2023-07-09T23:27:17;4.50;;;2.25;;
25936;SDS011;13733;51.178;4.450;2023-07-09T23:29:43;6.63;;;2.70;;
25936;SDS011;13733;51.178;4.450;2023-07-09T23:32:13;4.45;;;1.77;;
25936;SDS011;13733;51.178;4.450;2023-07-09T23:34:40;9.63;;;2.50;;
25936;SDS011;13733;51.178;4.450;2023-07-09T23:37:07;5.93;;;2.30;;
25936;SDS011;13733;51.178;4.450;2023-07-09T23:39:33;10.05;;;2.20;;
25936;SDS011;13733;51.178;4.450;2023-07-09T23:41:58;4.60;;;2.10;;
25936;SDS011;13733;51.178;4.450;2023-07-09T23:44:26;7.85;;;2.65;;
25936;SDS011;13733;51.178;4.450;2023-07-09T23:46:55;7.22;;;2.20;;
25936;SDS011;13733;51.178;4.450;2023-07-09T23:49:23;5.15;;;2.10;;
25936;SDS011;13733;51.178;4.450;2023-07-09T23:51:50;6.10;;;2.22;;
25936;SDS011;13733;51.178;4.450;2023-07-09T23:54:16;4.57;;;2.33;;
25936;SDS011;13733;51.178;4.450;2023-07-09T23:56:43;6.75;;;2.47;;
25936;SDS011;13733;51.178;4.450;2023-07-09T23:59:15;8.10;;;2.42;;
